Time;durP1;ratioP1;P1;durP2;ratioP2;P2;SDS_P1;SDS_P2;PMS_P1;PMS_P2;Temp;Humidity;BMP_temperature;BMP_pressure;BME280_temperature;BME280_humidity;BME280_pressure;Samples;Min_cycle;Max_cycle;Signal;HPM_P1;HPM_P2
2021/10/27 00:01:35;;;;;;;10.00;5.43;;;12.00;50.70;;;;;;5005873;28;20038;-80
2021/10/27 00:04:02;;;;;;;12.27;5.07;;;12.00;50.70;;;;;;5021763;28;20033;-80
2021/10/27 00:06:28;;;;;;;6.10;4.65;;;12.00;50.80;;;;;;5007165;28;20097;-80
2021/10/27 00:08:54;;;;;;;8.07;5.05;;;12.00;51.10;;;;;;5007307;28;20029;-80
2021/10/27 00:11:20;;;;;;;7.53;5.07;;;12.00;50.80;;;;;;5023256;28;20045;-80
2021/10/27 00:13:46;;;;;;;10.85;5.00;;;12.00;50.80;;;;;;5005276;28;20033;-81
2021/10/27 00:16:13;;;;;;;8.07;5.25;;;12.00;50.80;;;;;;5025101;28;20720;-80
2021/10/27 00:18:39;;;;;;;11.32;5.10;;;12.00;50.80;;;;;;5021663;28;20402;-80
2021/10/27 00:21:05;;;;;;;9.00;5.07;;;12.00;50.80;;;;;;5009879;28;20034;-81
2021/10/27 00:23:31;;;;;;;9.70;5.13;;;11.90;50.80;;;;;;5024905;28;20034;-80
2021/10/27 00:25:56;;;;;;;9.93;4.82;;;11.90;50.80;;;;;;5022834;28;20132;-80
2021/10/27 00:28:22;;;;;;;7.68;4.63;;;12.00;50.90;;;;;;5024883;28;20380;-80
2021/10/27 00:30:48;;;;;;;10.82;5.07;;;11.90;50.90;;;;;;5004426;28;20107;-79
2021/10/27 00:33:16;;;;;;;7.30;4.60;;;11.90;50.90;;;;;;4994675;28;20029;-79
2021/10/27 00:35:42;;;;;;;8.23;4.97;;;11.90;50.90;;;;;;5022083;28;20128;-80
2021/10/27 00:38:08;;;;;;;8.65;4.82;;;11.90;51.00;;;;;;5010415;28;20045;-80
2021/10/27 00:40:34;;;;;;;7.75;4.80;;;11.90;50.90;;;;;;5022134;28;20036;-80
2021/10/27 00:43:00;;;;;;;9.93;5.30;;;11.90;51.00;;;;;;5004298;28;20036;-80
2021/10/27 00:45:26;;;;;;;8.30;5.20;;;11.90;51.10;;;;;;5022967;28;20061;-80
2021/10/27 00:47:52;;;;;;;8.93;5.57;;;11.80;51.10;;;;;;5021449;28;20045;-79
2021/10/27 00:50:18;;;;;;;9.88;4.50;;;11.80;51.10;;;;;;5021601;28;20034;-80
2021/10/27 00:52:44;;;;;;;8.77;5.07;;;11.80;51.10;;;;;;5009529;28;20578;-80
2021/10/27 00:55:10;;;;;;;8.75;5.03;;;11.90;51.20;;;;;;5022532;28;20073;-81
2021/10/27 00:57:37;;;;;;;7.47;5.00;;;11.80;51.10;;;;;;5022022;28;20494;-80
2021/10/27 01:00:07;;;;;;;10.15;5.05;;;11.80;51.10;;;;;;4991979;28;20065;-79
2021/10/27 01:02:33;;;;;;;11.52;5.22;;;11.80;51.10;;;;;;5004220;28;20547;-79
2021/10/27 01:04:59;;;;;;;7.20;4.57;;;11.80;51.10;;;;;;5023317;28;20037;-79
2021/10/27 01:07:26;;;;;;;6.40;4.78;;;11.80;51.10;;;;;;5023780;28;20032;-80
2021/10/27 01:09:53;;;;;;;9.63;5.50;;;11.80;51.10;;;;;;5005461;28;20026;-79
2021/10/27 01:12:19;;;;;;;11.63;6.13;;;11.80;51.10;;;;;;5023659;28;20037;-79
2021/10/27 01:14:47;;;;;;;11.20;4.90;;;11.80;51.10;;;;;;5023477;28;20033;-80
2021/10/27 01:17:16;;;;;;;8.20;5.30;;;11.80;51.10;;;;;;5021627;28;20116;-80
2021/10/27 01:19:49;;;;;;;7.60;5.20;;;11.80;51.10;;;;;;5004097;28;20029;-79
2021/10/27 01:22:17;;;;;;;8.18;4.90;;;11.70;51.10;;;;;;5004112;28;20026;-80
2021/10/27 01:24:44;;;;;;;9.88;5.10;;;11.70;51.10;;;;;;5023184;28;20039;-79
2021/10/27 01:27:10;;;;;;;9.15;5.35;;;11.70;51.20;;;;;;5005300;28;20029;-79
2021/10/27 01:29:36;;;;;;;7.35;5.20;;;11.60;51.30;;;;;;5008568;28;20030;-79
2021/10/27 01:32:03;;;;;;;9.43;5.53;;;11.70;51.40;;;;;;5023054;28;20033;-79
2021/10/27 01:34:29;;;;;;;7.75;5.15;;;11.60;51.40;;;;;;5020915;28;20059;-78
2021/10/27 01:36:55;;;;;;;11.20;5.35;;;11.70;51.40;;;;;;5022071;28;20492;-81
2021/10/27 01:39:21;;;;;;;8.77;5.75;;;11.70;51.40;;;;;;5023816;28;20041;-80
2021/10/27 01:41:47;;;;;;;8.32;5.15;;;11.60;51.40;;;;;;5022268;28;20057;-79
2021/10/27 01:44:13;;;;;;;9.20;4.72;;;11.60;51.50;;;;;;5022477;28;20531;-79
2021/10/27 01:46:40;;;;;;;7.38;5.10;;;11.60;51.40;;;;;;5022680;28;20037;-77
2021/10/27 01:49:08;;;;;;;10.48;5.40;;;11.60;51.40;;;;;;5022144;28;20105;-79
2021/10/27 01:51:35;;;;;;;9.18;5.60;;;11.60;51.40;;;;;;5004283;28;20034;-78
2021/10/27 01:54:01;;;;;;;8.13;4.82;;;11.60;51.50;;;;;;5003989;28;20144;-78
2021/10/27 01:56:27;;;;;;;10.88;5.38;;;11.60;51.50;;;;;;5021349;28;20088;-78
2021/10/27 01:58:55;;;;;;;10.00;5.10;;;11.60;51.50;;;;;;5021562;28;20497;-79
2021/10/27 02:01:21;;;;;;;10.75;5.40;;;11.60;51.50;;;;;;5021605;28;20033;-78
2021/10/27 02:03:47;;;;;;;8.45;5.45;;;11.60;51.50;;;;;;5022948;28;20030;-79
2021/10/27 02:06:13;;;;;;;9.05;5.15;;;11.50;51.40;;;;;;5021889;28;20718;-78
2021/10/27 02:08:39;;;;;;;12.63;5.30;;;11.60;51.60;;;;;;4990727;28;20033;-78
2021/10/27 02:11:06;;;;;;;7.38;5.22;;;11.60;51.60;;;;;;4991333;28;20674;-78
2021/10/27 02:13:32;;;;;;;8.73;5.50;;;11.60;51.60;;;;;;5021426;28;20439;-79
2021/10/27 02:15:57;;;;;;;9.10;5.40;;;11.60;51.60;;;;;;5000591;28;20041;-79
2021/10/27 02:18:23;;;;;;;8.13;5.40;;;11.60;51.60;;;;;;5021206;28;20037;-78
2021/10/27 02:20:50;;;;;;;8.88;4.95;;;11.60;51.60;;;;;;5002305;28;20030;-78
2021/10/27 02:23:16;;;;;;;9.00;5.43;;;11.50;51.60;;;;;;5020975;28;20037;-78
2021/10/27 02:25:42;;;;;;;8.65;5.28;;;11.50;51.50;;;;;;5021071;28;20118;-78
2021/10/27 02:28:09;;;;;;;12.95;5.55;;;11.50;51.70;;;;;;5021557;28;20037;-78
2021/10/27 02:30:35;;;;;;;13.18;5.88;;;11.50;51.70;;;;;;5021672;28;20029;-77
2021/10/27 02:33:02;;;;;;;9.02;5.05;;;11.50;51.80;;;;;;5004659;28;20034;-78
2021/10/27 02:35:29;;;;;;;8.50;5.13;;;11.50;51.80;;;;;;5003526;28;20136;-78
2021/10/27 02:37:55;;;;;;;9.55;5.35;;;11.50;51.80;;;;;;5002669;28;20042;-77
2021/10/27 02:40:21;;;;;;;6.43;5.05;;;11.50;51.80;;;;;;4990812;28;20033;-78
2021/10/27 02:42:47;;;;;;;8.30;4.82;;;11.50;51.70;;;;;;5007350;28;20063;-79
2021/10/27 02:45:13;;;;;;;9.57;5.50;;;11.50;51.80;;;;;;5003716;28;20621;-78
2021/10/27 02:47:42;;;;;;;9.20;5.13;;;11.50;51.80;;;;;;5019987;28;20486;-78
2021/10/27 02:50:09;;;;;;;10.48;5.68;;;11.40;51.80;;;;;;5020385;28;20029;-78
2021/10/27 02:52:35;;;;;;;9.65;5.53;;;11.40;51.90;;;;;;5006161;28;20042;-78
2021/10/27 02:55:03;;;;;;;8.52;5.22;;;11.40;52.10;;;;;;5002236;28;20076;-78
2021/10/27 02:57:29;;;;;;;11.55;5.50;;;11.40;52.20;;;;;;5020508;28;20035;-77
2021/10/27 02:59:55;;;;;;;12.40;5.50;;;11.40;52.10;;;;;;5007401;28;20033;-78
2021/10/27 03:02:20;;;;;;;9.73;5.18;;;11.40;52.10;;;;;;5020877;28;20404;-77
2021/10/27 03:04:46;;;;;;;8.50;5.50;;;11.50;52.10;;;;;;5023298;28;20029;-78
2021/10/27 03:07:12;;;;;;;7.15;5.35;;;11.40;52.00;;;;;;5022081;28;20030;-78
2021/10/27 03:09:39;;;;;;;9.52;5.35;;;11.40;51.90;;;;;;5020511;28;20041;-78
2021/10/27 03:12:05;;;;;;;9.50;5.30;;;11.50;52.00;;;;;;5021039;28;20267;-78
2021/10/27 03:14:31;;;;;;;8.02;5.30;;;11.40;52.00;;;;;;5024604;28;20033;-78
2021/10/27 03:16:57;;;;;;;9.52;5.25;;;11.40;52.00;;;;;;5026875;28;20120;-77
2021/10/27 03:19:23;;;;;;;11.60;5.47;;;11.30;52.10;;;;;;5025629;28;20168;-78
2021/10/27 03:21:49;;;;;;;10.52;4.93;;;11.30;52.10;;;;;;4995543;28;20034;-78
2021/10/27 03:24:16;;;;;;;10.70;5.40;;;11.30;52.10;;;;;;5025669;28;20107;-78
2021/10/27 03:26:43;;;;;;;9.63;5.20;;;11.30;52.10;;;;;;5007959;28;20059;-78
2021/10/27 03:29:09;;;;;;;9.32;5.32;;;11.30;52.30;;;;;;5025033;28;20398;-77
2021/10/27 03:31:36;;;;;;;12.07;5.28;;;11.30;52.30;;;;;;5025601;28;20026;-77
2021/10/27 03:34:02;;;;;;;10.63;5.40;;;11.30;52.30;;;;;;5011020;28;20037;-80
2021/10/27 03:36:28;;;;;;;8.00;5.40;;;11.20;52.20;;;;;;5009210;28;20069;-79
2021/10/27 03:38:55;;;;;;;8.02;5.20;;;11.30;52.40;;;;;;5009597;28;20033;-80
2021/10/27 03:41:20;;;;;;;8.20;5.20;;;11.30;52.50;;;;;;5024135;28;20033;-79
2021/10/27 03:43:47;;;;;;;7.45;5.40;;;11.30;52.50;;;;;;5023182;28;20404;-79
2021/10/27 03:46:12;;;;;;;11.75;5.57;;;11.20;52.50;;;;;;5023646;28;20044;-79
2021/10/27 03:48:39;;;;;;;11.95;5.50;;;11.30;52.60;;;;;;5022742;28;20034;-79
2021/10/27 03:51:07;;;;;;;7.45;4.75;;;11.30;52.60;;;;;;5024736;28;21791;-79
2021/10/27 03:53:32;;;;;;;7.47;5.07;;;11.30;53.10;;;;;;5022124;28;20537;-80
2021/10/27 03:56:00;;;;;;;8.65;5.18;;;11.30;52.50;;;;;;5022429;28;20168;-79
2021/10/27 03:58:26;;;;;;;7.85;5.45;;;11.30;52.50;;;;;;5024719;28;20136;-80
2021/10/27 04:00:52;;;;;;;8.68;5.35;;;11.30;52.60;;;;;;5006915;28;20053;-81
2021/10/27 04:03:22;;;;;;;9.95;5.50;;;11.20;52.50;;;;;;5020543;28;20516;-79
2021/10/27 04:05:49;;;;;;;9.65;5.88;;;11.20;52.50;;;;;;5004153;28;20068;-80
2021/10/27 04:08:15;;;;;;;11.38;5.40;;;11.20;52.70;;;;;;5024767;28;20026;-80
2021/10/27 04:10:41;;;;;;;11.85;5.97;;;11.30;52.80;;;;;;5002681;28;20116;-79
2021/10/27 04:13:06;;;;;;;8.70;5.38;;;11.30;52.70;;;;;;5021774;28;20564;-79
2021/10/27 04:15:32;;;;;;;13.60;5.72;;;11.30;52.70;;;;;;5022844;28;20520;-78
2021/10/27 04:17:59;;;;;;;8.80;5.80;;;11.30;52.70;;;;;;5026586;28;20045;-77
2021/10/27 04:20:26;;;;;;;9.75;5.40;;;11.30;52.80;;;;;;5026865;28;20037;-78
2021/10/27 04:22:52;;;;;;;13.35;5.82;;;11.30;52.80;;;;;;5023621;28;20036;-78
2021/10/27 04:25:18;;;;;;;10.98;5.75;;;11.20;52.80;;;;;;5023086;28;20447;-78
2021/10/27 04:27:44;;;;;;;11.30;5.55;;;11.20;52.80;;;;;;5026005;28;20033;-79
2021/10/27 04:30:11;;;;;;;9.05;5.47;;;11.20;52.90;;;;;;5007334;28;20037;-80
2021/10/27 04:32:37;;;;;;;11.80;6.30;;;11.20;52.90;;;;;;5022641;28;20116;-77
2021/10/27 04:35:04;;;;;;;11.77;5.47;;;11.20;53.00;;;;;;5003551;28;20121;-77
2021/10/27 04:37:34;;;;;;;13.15;5.80;;;11.20;53.00;;;;;;5009177;28;20026;-78
2021/10/27 04:40:01;;;;;;;9.35;5.32;;;11.20;53.00;;;;;;5008977;28;20128;-78
2021/10/27 04:42:27;;;;;;;8.73;5.78;;;11.20;53.10;;;;;;5008485;28;20033;-79
2021/10/27 04:44:52;;;;;;;8.68;5.60;;;11.20;53.10;;;;;;4987325;28;20400;-80
2021/10/27 04:47:18;;;;;;;11.15;5.85;;;11.20;53.20;;;;;;5004595;28;20087;-79
2021/10/27 04:49:45;;;;;;;12.02;5.45;;;11.20;53.10;;;;;;5005958;28;20052;-80
2021/10/27 04:52:11;;;;;;;9.30;6.03;;;11.20;53.10;;;;;;5021739;28;20057;-86
2021/10/27 04:54:37;;;;;;;8.15;5.35;;;11.20;53.20;;;;;;5008693;28;20066;-79
2021/10/27 04:57:03;;;;;;;11.52;6.18;;;11.20;53.80;;;;;;5025730;28;20025;-80
2021/10/27 04:59:44;;;;;;;11.60;6.10;;;11.20;53.30;;;;;;5021645;28;20414;-80
2021/10/27 05:02:17;;;;;;;11.93;5.65;;;11.20;53.40;;;;;;5008399;28;20041;-80
2021/10/27 05:04:45;;;;;;;10.48;6.03;;;11.20;53.20;;;;;;5022539;28;20230;-81
2021/10/27 05:07:14;;;;;;;10.23;5.97;;;11.20;53.30;;;;;;5022541;28;20377;-80
2021/10/27 05:09:41;;;;;;;15.77;6.70;;;11.20;53.30;;;;;;5022492;28;20044;-81
2021/10/27 05:12:08;;;;;;;10.10;6.13;;;11.20;53.30;;;;;;5007916;28;20069;-80
2021/10/27 05:14:36;;;;;;;11.23;6.53;;;11.20;53.30;;;;;;5021256;28;20033;-80
2021/10/27 05:17:06;;;;;;;11.48;6.13;;;11.20;53.40;;;;;;5022415;28;20437;-82
2021/10/27 05:19:33;;;;;;;10.43;6.13;;;11.20;53.40;;;;;;4990120;28;20140;-80
2021/10/27 05:22:00;;;;;;;9.55;5.95;;;11.20;53.50;;;;;;5022561;28;20132;-81
2021/10/27 05:24:26;;;;;;;12.10;6.18;;;11.20;53.50;;;;;;5021995;28;20037;-80
2021/10/27 05:26:52;;;;;;;9.90;5.93;;;11.20;53.60;;;;;;5003732;28;20025;-80
2021/10/27 05:29:18;;;;;;;12.82;6.97;;;11.20;53.60;;;;;;5005633;28;20025;-80
2021/10/27 05:31:44;;;;;;;11.35;5.65;;;11.20;53.60;;;;;;5005905;28;20036;-80
2021/10/27 05:34:11;;;;;;;11.02;6.13;;;11.20;53.60;;;;;;5021165;28;20033;-80
2021/10/27 05:36:38;;;;;;;11.30;6.18;;;11.20;53.60;;;;;;5024546;28;20041;-80
2021/10/27 05:39:05;;;;;;;12.02;6.60;;;11.20;53.50;;;;;;5022891;28;20034;-81
2021/10/27 05:41:31;;;;;;;9.15;5.80;;;11.20;53.60;;;;;;5008387;28;20044;-80
2021/10/27 05:43:57;;;;;;;12.68;6.65;;;11.20;53.60;;;;;;5021353;28;20120;-80
2021/10/27 05:46:24;;;;;;;11.40;6.10;;;11.20;53.70;;;;;;5022978;28;20067;-81
2021/10/27 05:49:01;;;;;;;10.50;6.32;;;11.20;53.70;;;;;;5007670;28;20033;-81
2021/10/27 05:51:44;;;;;;;9.95;5.93;;;11.20;53.80;;;;;;5020846;28;20095;-80
2021/10/27 05:56:55;;;;;;;12.50;6.78;;;11.20;53.90;;;;;;5021256;28;20039;-80
2021/10/27 05:59:23;;;;;;;10.30;6.28;;;11.20;53.90;;;;;;5021154;28;20393;-80
2021/10/27 06:01:50;;;;;;;10.73;6.10;;;11.30;53.90;;;;;;5003195;28;20060;-79
2021/10/27 06:04:17;;;;;;;12.93;6.65;;;11.30;53.90;;;;;;5021111;28;20067;-79
2021/10/27 06:06:45;;;;;;;14.32;6.32;;;11.30;53.90;;;;;;5002565;28;20527;-79
2021/10/27 06:09:12;;;;;;;15.60;6.60;;;11.30;54.00;;;;;;5022547;28;20025;-78
2021/10/27 06:11:39;;;;;;;12.20;6.50;;;11.30;54.00;;;;;;5004843;28;20056;-80
2021/10/27 06:14:09;;;;;;;11.18;6.13;;;11.30;54.10;;;;;;5007689;28;20369;-79
2021/10/27 06:16:35;;;;;;;11.48;6.28;;;11.30;54.60;;;;;;5000530;28;20033;-80
2021/10/27 06:19:04;;;;;;;9.93;6.25;;;11.30;54.00;;;;;;5021563;28;20513;-79
2021/10/27 06:21:31;;;;;;;13.93;6.43;;;11.30;54.00;;;;;;4999438;28;20036;-79
2021/10/27 06:23:58;;;;;;;11.68;6.80;;;11.30;54.00;;;;;;5020740;28;20033;-81
2021/10/27 06:26:24;;;;;;;11.18;6.50;;;11.40;54.10;;;;;;5021769;28;20092;-81
2021/10/27 06:29:06;;;;;;;8.20;6.35;;;11.40;54.00;;;;;;5020774;28;20025;-80
2021/10/27 06:31:43;;;;;;;11.63;6.88;;;11.40;54.00;;;;;;5008435;28;20048;-80
2021/10/27 06:47:30;;;;;;;10.25;6.53;;;11.40;54.10;;;;;;5022507;28;20047;-78
2021/10/27 06:50:00;;;;;;;12.90;6.72;;;11.40;54.20;;;;;;4992512;28;20034;-79
2021/10/27 06:52:26;;;;;;;16.00;7.22;;;11.30;54.20;;;;;;4995964;28;20080;-79
2021/10/27 06:54:54;;;;;;;12.70;7.32;;;11.30;54.20;;;;;;5006657;28;20558;-79
2021/10/27 06:57:24;;;;;;;13.40;6.90;;;11.40;54.30;;;;;;5024251;28;20148;-80
2021/10/27 07:00:00;;;;;;;15.23;7.10;;;11.40;54.20;;;;;;5023517;28;20500;-83
2021/10/27 07:02:48;;;;;;;12.80;6.90;;;11.40;54.30;;;;;;5008287;28;20046;-83
2021/10/27 07:16:12;;;;;;;12.15;6.75;;;11.60;58.70;;;;;;5022939;28;20025;-83
2021/10/27 07:18:39;;;;;;;15.57;7.35;;;11.60;59.30;;;;;;5015564;28;20045;-83
2021/10/27 07:21:07;;;;;;;16.88;6.90;;;11.60;59.80;;;;;;5032814;28;20407;-84
2021/10/27 07:23:37;;;;;;;18.83;7.60;;;11.60;60.40;;;;;;5017740;28;20437;-84
2021/10/27 07:26:05;;;;;;;12.75;6.78;;;11.70;60.70;;;;;;5034496;28;20029;-84
2021/10/27 07:28:33;;;;;;;11.20;6.82;;;11.80;60.90;;;;;;5017524;28;20037;-84
2021/10/27 07:31:03;;;;;;;10.95;6.78;;;11.80;60.90;;;;;;5015595;28;20128;-84
2021/10/27 07:33:31;;;;;;;12.70;6.95;;;11.90;60.90;;;;;;5023970;28;20042;-84
2021/10/27 07:36:08;;;;;;;13.50;7.60;;;11.90;60.90;;;;;;5025340;28;20060;-85
2021/10/27 07:41:19;;;;;;;11.63;6.80;;;12.00;60.80;;;;;;5030568;28;20492;-82
2021/10/27 07:43:45;;;;;;;15.63;7.10;;;12.00;61.00;;;;;;5026406;28;20033;-82
2021/10/27 07:46:12;;;;;;;12.80;7.05;;;12.10;60.90;;;;;;5034535;28;20048;-81
2021/10/27 07:48:38;;;;;;;12.18;6.57;;;12.10;61.10;;;;;;5034107;28;20029;-82
2021/10/27 07:51:04;;;;;;;9.68;6.22;;;12.20;61.10;;;;;;5029353;28;20037;-83
2021/10/27 07:53:32;;;;;;;9.50;6.53;;;12.20;61.10;;;;;;5016825;28;20500;-82
2021/10/27 07:55:59;;;;;;;11.52;6.65;;;12.20;61.00;;;;;;4996967;28;20103;-82
2021/10/27 07:58:26;;;;;;;12.60;7.20;;;12.20;60.90;;;;;;4996398;28;20040;-81
2021/10/27 08:00:59;;;;;;;10.43;6.18;;;12.30;60.80;;;;;;5030248;28;20045;-82
2021/10/27 08:03:27;;;;;;;11.63;6.72;;;12.30;60.80;;;;;;4996874;28;20232;-82
2021/10/27 08:05:56;;;;;;;11.60;6.90;;;12.30;60.70;;;;;;5011732;28;20099;-85
2021/10/27 08:08:22;;;;;;;11.18;6.72;;;12.40;60.80;;;;;;5014750;28;20057;-84
2021/10/27 08:10:50;;;;;;;14.50;7.15;;;12.40;61.30;;;;;;5024091;28;20540;-84
2021/10/27 08:13:18;;;;;;;13.95;6.70;;;12.40;60.70;;;;;;5024419;28;20037;-84
2021/10/27 08:15:44;;;;;;;13.68;7.07;;;12.40;60.50;;;;;;5027725;28;20030;-87
2021/10/27 08:18:15;;;;;;;11.32;7.25;;;12.50;60.50;;;;;;5011338;28;20037;-84
2021/10/27 08:20:41;;;;;;;9.60;6.45;;;12.50;60.40;;;;;;5007310;28;20034;-86
2021/10/27 08:23:10;;;;;;;12.55;7.07;;;12.50;60.40;;;;;;5033747;28;20048;-84
2021/10/27 08:25:42;;;;;;;12.65;6.95;;;12.50;60.20;;;;;;5033820;28;20033;-85
2021/10/27 08:28:14;;;;;;;12.52;6.75;;;12.50;60.10;;;;;;5016267;28;20032;-86
2021/10/27 08:33:25;;;;;;;12.05;6.88;;;12.60;60.00;;;;;;4996291;28;20048;-86
2021/10/27 08:35:52;;;;;;;13.68;6.97;;;12.60;60.00;;;;;;4989675;28;20033;-85
2021/10/27 08:38:18;;;;;;;10.90;7.22;;;12.60;59.80;;;;;;4999378;28;20037;-85
2021/10/27 08:40:48;;;;;;;12.25;6.97;;;12.60;59.80;;;;;;5024956;28;20087;-84
2021/10/27 08:43:14;;;;;;;10.68;6.93;;;12.70;59.70;;;;;;5021872;28;20030;-83
2021/10/27 08:45:41;;;;;;;13.43;7.50;;;12.70;59.70;;;;;;5023238;28;20068;-82
2021/10/27 08:48:09;;;;;;;18.33;8.02;;;12.70;59.70;;;;;;5022003;28;20037;-85
2021/10/27 08:50:35;;;;;;;14.52;8.13;;;12.70;59.70;;;;;;5003975;28;20033;-85
2021/10/27 08:53:02;;;;;;;13.27;7.65;;;12.70;59.70;;;;;;5021312;28;20064;-84
2021/10/27 08:55:32;;;;;;;12.30;7.30;;;12.80;59.70;;;;;;5022769;28;20049;-84
2021/10/27 08:57:59;;;;;;;11.57;6.85;;;12.80;59.70;;;;;;5008805;28;20033;-85
2021/10/27 09:00:30;;;;;;;12.35;7.38;;;12.80;59.60;;;;;;5009361;28;20141;-84
2021/10/27 09:41:58;;;;;;;12.05;7.70;;;13.10;59.90;;;;;;5022789;28;20500;-83
2021/10/27 10:04:35;;;;;;;13.27;7.38;;;13.20;59.90;;;;;;5002962;28;20030;-84
2021/10/27 10:07:05;;;;;;;11.00;6.35;;;13.30;59.90;;;;;;5004623;28;20064;-84
2021/10/27 10:09:37;;;;;;;10.90;7.10;;;13.30;59.90;;;;;;5023308;28;20496;-83
2021/10/27 10:12:03;;;;;;;12.73;8.02;;;13.30;59.90;;;;;;5023993;28;20501;-83
2021/10/27 10:14:30;;;;;;;12.85;7.50;;;13.30;59.90;;;;;;5003535;28;20042;-81
2021/10/27 10:16:59;;;;;;;13.02;7.07;;;13.30;59.90;;;;;;5005213;28;20553;-87
2021/10/27 10:19:35;;;;;;;16.33;7.50;;;13.30;59.80;;;;;;5019738;28;20112;-84
2021/10/27 10:22:02;;;;;;;13.93;7.65;;;13.40;59.70;;;;;;5023473;28;20413;-84
2021/10/27 10:24:39;;;;;;;11.82;7.07;;;13.40;59.80;;;;;;5019731;28;20142;-86
2021/10/27 10:27:13;;;;;;;12.65;7.68;;;13.40;59.80;;;;;;5004891;28;20030;-84
2021/10/27 10:29:53;;;;;;;14.23;7.43;;;13.40;59.80;;;;;;5021357;28;20035;-84
2021/10/27 10:32:27;;;;;;;11.40;7.65;;;13.40;59.70;;;;;;4988308;28;20128;-85
2021/10/27 10:34:58;;;;;;;14.95;7.80;;;13.50;59.70;;;;;;5007448;28;20037;-80
2021/10/27 10:37:37;;;;;;;19.38;7.85;;;13.50;59.60;;;;;;5023797;28;20488;-81
2021/10/27 10:40:36;;;;;;;15.98;8.00;;;13.50;59.60;;;;;;5025255;28;20033;-79
2021/10/27 10:57:17;;;;;;;19.92;9.82;;;13.50;58.00;;;;;;5007481;28;20128;-82
2021/10/27 11:23:40;;;;;;;14.77;10.02;;;13.50;56.60;;;;;;5031915;28;20376;-80
2021/10/27 11:40:15;;;;;;;17.37;10.87;;;13.40;56.40;;;;;;5009937;28;20040;-83
2021/10/27 11:46:11;;;;;;;16.73;10.90;;;13.40;56.90;;;;;;5015280;28;20128;-81
2021/10/27 11:48:19;;;;;;;17.77;11.35;;;13.40;56.30;;;;;;5015341;28;20052;-83
2021/10/27 11:50:46;;;;;;;20.20;9.98;;;13.40;56.30;;;;;;5011680;28;20404;-84
2021/10/27 11:53:30;;;;;;;21.08;11.02;;;13.40;56.20;;;;;;5029413;28;20053;-83
2021/10/27 11:56:11;;;;;;;16.65;10.52;;;13.30;56.10;;;;;;5033189;28;20083;-84
2021/10/27 11:58:40;;;;;;;20.08;10.10;;;13.40;56.20;;;;;;4997066;28;20029;-83
2021/10/27 12:01:07;;;;;;;19.95;10.52;;;13.30;56.20;;;;;;5015990;28;20042;-82
2021/10/27 12:03:42;;;;;;;15.70;9.73;;;13.30;56.20;;;;;;5034662;28;20021;-82
2021/10/27 12:06:16;;;;;;;14.98;11.10;;;13.30;56.20;;;;;;5017136;28;20068;-82
2021/10/27 12:13:53;;;;;;;18.60;9.40;;;13.30;56.30;;;;;;5028299;28;20045;-80
2021/10/27 12:19:22;;;;;;;16.88;10.25;;;13.30;56.30;;;;;;5031452;28;20124;-80
2021/10/27 12:21:50;;;;;;;19.88;9.77;;;13.30;56.30;;;;;;5014268;28;20432;-80
2021/10/27 12:24:18;;;;;;;15.18;9.90;;;13.20;56.30;;;;;;5011485;28;20129;-80
2021/10/27 12:26:47;;;;;;;21.38;10.77;;;13.30;56.50;;;;;;5032219;28;20447;-80
2021/10/27 12:29:22;;;;;;;15.38;9.95;;;13.20;56.40;;;;;;5013882;28;20072;-80
2021/10/27 12:32:05;;;;;;;15.05;9.82;;;13.20;56.40;;;;;;5031419;28;20049;-80
2021/10/27 12:34:32;;;;;;;16.00;9.73;;;13.20;56.40;;;;;;4997421;28;20038;-82
2021/10/27 12:37:00;;;;;;;15.93;9.95;;;13.20;56.40;;;;;;4998259;28;20025;-80
2021/10/27 12:39:46;;;;;;;15.23;9.75;;;13.20;56.50;;;;;;5014536;28;20034;-81
2021/10/27 12:42:13;;;;;;;14.05;9.65;;;13.20;56.60;;;;;;5013329;28;20103;-80
2021/10/27 12:44:51;;;;;;;17.88;11.13;;;13.20;56.50;;;;;;5001625;28;20562;-78
2021/10/27 12:47:25;;;;;;;13.77;9.52;;;13.20;56.50;;;;;;5013500;28;20025;-78
2021/10/27 12:50:14;;;;;;;13.70;9.40;;;13.20;56.50;;;;;;5005655;28;20029;-81
2021/10/27 12:52:50;;;;;;;17.70;9.55;;;13.20;56.80;;;;;;4990682;28;20063;-81
2021/10/27 12:55:19;;;;;;;;;;;13.20;56.70;;;;;;5006650;28;20030;-81
2021/10/27 12:57:59;;;;;;;13.90;9.10;;;13.20;56.80;;;;;;5021752;28;20422;-81
2021/10/27 13:06:22;;;;;;;15.75;9.30;;;13.20;56.90;;;;;;5022476;28;20029;-83
2021/10/27 13:13:57;;;;;;;13.13;8.70;;;13.10;56.90;;;;;;5009140;28;20040;-82
2021/10/27 13:32:13;;;;;;;13.95;9.25;;;13.10;57.40;;;;;;5021689;28;20049;-81
2021/10/27 13:34:38;;;;;;;14.30;9.07;;;13.10;57.40;;;;;;5022360;28;20030;-81
2021/10/27 13:37:07;;;;;;;16.83;9.35;;;13.10;57.50;;;;;;5022555;28;20037;-81
2021/10/27 13:39:33;;;;;;;13.60;8.75;;;13.10;57.50;;;;;;5031534;28;20074;-80
2021/10/27 13:42:04;;;;;;;15.63;9.15;;;13.10;57.60;;;;;;5031996;28;20041;-81
2021/10/27 13:44:36;;;;;;;19.23;9.00;;;13.10;57.60;;;;;;5028304;28;20060;-79
2021/10/27 14:08:45;;;;;;;11.57;7.65;;;13.20;62.50;;;;;;5040485;28;20028;-89
2021/10/27 14:14:19;;;;;;;13.85;7.60;;;13.20;62.70;;;;;;4973403;28;20163;-93
2021/10/27 15:19:54;;;;;;;11.73;7.15;;;13.70;63.10;;;;;;5031858;28;20045;-92
2021/10/27 15:32:44;;;;;;;12.27;7.22;;;13.70;62.30;;;;;;5027128;28;20037;-84
2021/10/27 15:40:36;;;;;;;13.73;7.63;;;13.70;62.40;;;;;;5031739;28;20036;-84
2021/10/27 15:45:41;;;;;;;10.60;7.10;;;13.70;62.70;;;;;;5034555;28;20045;-85
2021/10/27 15:53:11;;;;;;;12.50;7.40;;;13.70;63.80;;;;;;5005704;28;20496;-87
2021/10/27 15:55:37;;;;;;;12.18;7.30;;;13.70;63.80;;;;;;5024451;28;20044;-87
2021/10/27 15:58:04;;;;;;;12.15;6.78;;;13.70;63.90;;;;;;5010513;28;20562;-85
2021/10/27 16:00:30;;;;;;;13.77;7.25;;;13.70;64.00;;;;;;5025312;28;20091;-86
2021/10/27 16:02:56;;;;;;;14.02;7.13;;;13.80;64.00;;;;;;5029584;28;20034;-85
2021/10/27 16:05:25;;;;;;;11.43;7.47;;;13.80;64.20;;;;;;5034306;28;20033;-86
2021/10/27 16:07:53;;;;;;;8.35;6.78;;;13.70;64.10;;;;;;5011531;28;20125;-84
2021/10/27 16:10:21;;;;;;;10.60;6.95;;;13.80;64.20;;;;;;4993849;28;20037;-86
2021/10/27 16:12:47;;;;;;;10.90;7.07;;;13.80;64.20;;;;;;5004425;28;20659;-85
2021/10/27 16:15:34;;;;;;;13.18;6.90;;;13.80;64.30;;;;;;5027997;28;20029;-87
2021/10/27 16:18:00;;;;;;;11.82;6.82;;;13.80;64.40;;;;;;5033064;28;20489;-85
2021/10/27 16:20:26;;;;;;;15.75;7.93;;;13.80;64.40;;;;;;5012834;28;20117;-87
2021/10/27 16:22:52;;;;;;;13.32;7.75;;;13.80;64.50;;;;;;5033747;28;20216;-86
2021/10/27 16:25:18;;;;;;;11.63;7.30;;;13.80;64.50;;;;;;5014855;28;20022;-87
2021/10/27 16:27:44;;;;;;;10.38;7.28;;;13.90;64.60;;;;;;5023332;28;20056;-83
2021/10/27 16:30:10;;;;;;;10.23;6.72;;;13.90;64.40;;;;;;5005199;28;20029;-86
2021/10/27 16:32:37;;;;;;;12.70;7.13;;;13.90;64.40;;;;;;5024096;28;20810;-86
2021/10/27 16:35:03;;;;;;;11.13;7.03;;;13.90;64.50;;;;;;4990759;28;20056;-85
2021/10/27 16:37:29;;;;;;;10.88;7.00;;;13.90;64.40;;;;;;5031455;28;20427;-86
2021/10/27 16:39:56;;;;;;;12.02;7.53;;;13.90;64.30;;;;;;5009701;28;20060;-85
2021/10/27 16:42:23;;;;;;;10.23;6.75;;;13.90;64.40;;;;;;5032310;28;20048;-85
2021/10/27 16:44:49;;;;;;;10.70;6.95;;;13.90;64.40;;;;;;5033419;28;20036;-86
2021/10/27 16:47:15;;;;;;;13.13;6.82;;;13.90;64.40;;;;;;5033802;28;20033;-85
2021/10/27 16:49:42;;;;;;;11.30;7.03;;;13.90;64.20;;;;;;5012970;28;20030;-86
2021/10/27 16:52:09;;;;;;;13.38;7.05;;;13.90;64.20;;;;;;5032841;28;20088;-85
2021/10/27 16:54:35;;;;;;;9.75;6.82;;;13.90;64.20;;;;;;5032917;28;20110;-86
2021/10/27 16:57:01;;;;;;;9.98;6.90;;;13.90;64.50;;;;;;5032667;28;20061;-87
2021/10/27 16:59:27;;;;;;;14.57;6.85;;;13.90;64.00;;;;;;5030310;28;20037;-88
2021/10/27 17:01:54;;;;;;;11.68;6.65;;;13.90;64.10;;;;;;5034925;28;20444;-88
2021/10/27 17:04:21;;;;;;;12.15;6.55;;;14.00;64.10;;;;;;5039915;28;20025;-88
2021/10/27 17:06:48;;;;;;;12.13;6.97;;;14.00;64.00;;;;;;5038451;28;20044;-86
2021/10/27 17:09:14;;;;;;;8.90;6.72;;;13.90;64.00;;;;;;5032182;28;20399;-87
2021/10/27 17:11:40;;;;;;;12.68;6.72;;;14.00;64.10;;;;;;5031175;28;20084;-86
2021/10/27 17:14:06;;;;;;;11.85;6.88;;;14.00;64.10;;;;;;5022130;28;20033;-85
2021/10/27 17:16:33;;;;;;;9.88;6.63;;;14.00;64.10;;;;;;5026475;28;20412;-84
2021/10/27 17:18:59;;;;;;;10.40;6.93;;;14.00;64.10;;;;;;5020429;28;20132;-85
2021/10/27 17:21:26;;;;;;;13.68;7.10;;;14.00;64.10;;;;;;5024234;28;20498;-85
2021/10/27 17:23:54;;;;;;;10.35;6.55;;;14.00;64.30;;;;;;5021970;28;20037;-85
2021/10/27 17:26:21;;;;;;;10.48;7.25;;;14.00;64.50;;;;;;5003030;28;20064;-86
2021/10/27 17:28:46;;;;;;;12.95;6.68;;;14.00;64.60;;;;;;5027508;28;20037;-85
2021/10/27 17:31:12;;;;;;;11.07;6.80;;;14.00;64.60;;;;;;5021735;28;20037;-87
2021/10/27 17:33:38;;;;;;;10.68;6.55;;;14.00;64.70;;;;;;5022386;28;20045;-87
2021/10/27 17:36:09;;;;;;;9.05;6.80;;;14.00;64.70;;;;;;5030180;28;20036;-85
2021/10/27 17:38:35;;;;;;;8.65;6.70;;;14.00;64.80;;;;;;5022332;28;20037;-85